• Join FlightAware (Why Join?)
  • Login
  • US Flag 
07:43PM EDT


 

Airport Tracker/Info


-or-


 

Live Flight TrackerFlight Track Log ✈ SWA378 ✈ 09-05-2013 ✈ KORF - KBWI

Flight Track Log - Related Links

Times and Time Zones

All times are in EDT time to prevent confusion due to time zone crossing. See the SWA378 flight status page for this flight to view local times or setup timezone preferences in your user account.

Time Position Orientation Groundspeed Altitude Reporting Facility
EDT Latitude Longitude Course Direction KTS MPH feet Rate Location/Type
08:23PM 36.8636 -76.2281 206° Southwest 154 177 2,000  Level Washington Center
08:24PM 36.8383 -76.2822 240° Southwest 207 238 4,000 2,100 Climbing Washington Center
08:25PM 36.8694 -76.3267 311° West 232 267 6,000 3,420 Climbing Washington Center
08:26PM 36.9086 -76.3972 305° West 249 287 10,400 3,420 Climbing Washington Center
08:27PM 36.9581 -76.4808 307° West 277 319 13,000 2,760 Climbing Washington Center
08:28PM 37.0158 -76.5750 308° West 314 361 16,000 1,860 Climbing Washington Center
08:29PM 37.0775 -76.6747 308° West 342 394 16,700 480 Climbing Washington Center
08:30PM 37.1731 -76.7128 342° North 347 399 17,000 120 Climbing Washington Center
08:31PM 37.2708 -76.7456 345° North 347 399 17,000  Level Washington Center
08:32PM 37.3686 -76.7783 345° North 357 411 17,000  Level Washington Center
08:33PM 37.4786 -76.8167 345° North 362 417 17,000  Level Washington Center
08:34PM 37.5764 -76.8522 344° North 362 417 17,000  Level Washington Center
08:35PM 37.6742 -76.8853 345° North 362 417 17,000  Level Washington Center
08:36PM 37.7717 -76.9186 345° North 362 417 17,000  Level Washington Center
08:37PM 37.8694 -76.9569 343° North 362 417 17,000  Level Washington Center
08:38PM 37.9669 -76.9903 345° North 362 417 17,000  Level Washington Center
08:39PM 38.0667 -77.0264 344° North 362 417 17,000  Level Washington Center
08:40PM 38.1642 -77.0600 345° North 362 417 17,000 -360 Level Washington Center
08:41PM 38.2597 -77.0964 343° North 362 417 16,300 -840 Descending Washington Center
08:42PM 38.3456 -77.0689 14° North 342 394 15,400 -960 Descending Washington Center
08:43PM 38.4217 -76.9778 43° Northeast 332 382 14,400 -1,380 Descending Washington Center
08:44PM 38.4978 -76.8889 42° Northeast 351 404 12,700 -1,260 Descending Washington Center
08:45PM 38.5675 -76.8025 44° Northeast 351 404 11,900 -1,140 Descending Washington Center
08:46PM 38.6286 -76.7292 43° Northeast 330 380 10,500 -1,620 Descending Washington Center
08:47PM 38.6875 -76.6608 42° Northeast 299 344 8,800 -1,680 Descending Washington Center
08:48PM 38.7425 -76.5950 43° Northeast 284 327 7,200 -1,560 Descending Washington Center
08:49PM 38.8053 -76.5400 34° Northeast 272 313 5,700 -1,500 Descending Washington Center
08:50PM 38.8833 -76.5000 22° Northeast 253 291 4,000 -840 Descending Potomac TRACON
08:51PM 38.9500 -76.5167 349° North 244 281 3,900 -180 Descending Potomac TRACON
08:52PM 39.0167 -76.5500 339° North 216 249 3,700 -660 Descending Potomac TRACON
08:53PM 39.0667 -76.5833 333° Northwest 170 196 2,600 -1,200 Descending Potomac TRACON
08:54PM 39.1000 -76.6000 339° North 162 186 1,400 -900 Descending Potomac TRACON
08:55PM 39.1333 -76.6333 322° Northwest 136 157 800 -600 Descending Potomac TRACON
08:57PM 39.1667 -76.6667 339° North  Level FlightAware Approximate
09:04PM 39.1754 -76.6683 339° North  Level Estimated
09:05PM 39.1754 -76.6683 339° North  Level Estimated
09:06PM 39.1754 -76.6683 339° North  Level Estimated